createdAt,value
2023-02-07T00:00:45.417Z,56.32
2023-02-07T00:03:48.075Z,57.12
2023-02-07T00:06:50.437Z,56.90
2023-02-07T00:09:52.780Z,57.55
2023-02-07T00:12:55.358Z,55.81
2023-02-07T00:15:58.251Z,55.68
2023-02-07T00:19:00.760Z,56.24
2023-02-07T00:22:03.838Z,57.24
2023-02-07T00:25:06.846Z,56.73
2023-02-07T00:28:09.335Z,58.09
2023-02-07T00:31:21.733Z,57.75
2023-02-07T00:34:24.105Z,57.60
2023-02-07T00:37:26.638Z,58.15
2023-02-07T00:40:29.959Z,57.25
2023-02-07T00:43:33.215Z,57.77
2023-02-07T00:46:36.017Z,57.77
2023-02-07T00:49:38.273Z,56.96
2023-02-07T00:52:40.656Z,57.75
2023-02-07T00:55:43.658Z,57.35
2023-02-07T00:58:45.991Z,56.76
2023-02-07T01:01:48.708Z,57.47
2023-02-07T01:04:51.089Z,57.13
2023-02-07T01:07:53.550Z,57.65
2023-02-07T01:10:56.000Z,57.72
2023-02-07T01:14:01.065Z,57.68
2023-02-07T01:17:03.458Z,57.65
2023-02-07T01:20:06.196Z,57.43
2023-02-07T01:23:08.508Z,56.88
2023-02-07T01:26:10.855Z,58.81
2023-02-07T01:29:15.540Z,58.19
2023-02-07T01:32:17.840Z,58.57
2023-02-07T01:35:20.563Z,58.15
2023-02-07T01:38:22.887Z,58.12
2023-02-07T01:41:26.298Z,58.06
2023-02-07T01:44:28.575Z,58.25
2023-02-07T01:47:31.656Z,57.70
2023-02-07T01:50:34.115Z,57.66
2023-02-07T01:53:37.948Z,57.92
2023-02-07T01:56:44.784Z,58.46
2023-02-07T01:59:47.227Z,58.74
2023-02-07T02:02:49.628Z,59.12
2023-02-07T02:05:54.265Z,58.39
2023-02-07T02:09:02.040Z,57.73
2023-02-07T02:12:13.486Z,57.38
2023-02-07T02:15:43.360Z,57.78
2023-02-07T02:18:45.728Z,58.37
2023-02-07T02:22:05.928Z,59.55
2023-02-07T02:25:26.436Z,59.20
2023-02-07T02:28:47.669Z,58.70
2023-02-07T02:31:55.922Z,59.03
2023-02-07T02:35:20.158Z,58.84
2023-02-07T02:38:36.250Z,58.75
2023-02-07T02:42:22.241Z,58.80
2023-02-07T02:45:33.200Z,59.05
2023-02-07T02:48:35.916Z,59.40
2023-02-07T02:51:38.546Z,59.77
2023-02-07T02:54:41.242Z,59.25
2023-02-07T02:58:02.242Z,59.12
2023-02-07T03:01:19.594Z,58.85
2023-02-07T03:04:37.275Z,58.89
2023-02-07T03:07:42.448Z,58.74
2023-02-07T03:10:54.804Z,57.77
2023-02-07T03:14:06.076Z,58.21
2023-02-07T03:17:34.675Z,58.20
2023-02-07T03:20:51.024Z,58.08
2023-02-07T03:23:53.963Z,58.21
2023-02-07T03:26:58.595Z,58.84
2023-02-07T03:30:04.508Z,58.96
2023-02-07T03:33:10.103Z,59.31
2023-02-07T03:36:20.179Z,59.25
2023-02-07T03:39:22.784Z,60.28
2023-02-07T03:42:35.556Z,60.49
2023-02-07T03:45:38.485Z,59.03
2023-02-07T03:48:41.038Z,59.10
2023-02-07T03:51:44.274Z,57.91
2023-02-07T03:54:46.648Z,58.86
2023-02-07T03:57:48.986Z,58.18
2023-02-07T04:00:51.325Z,58.36
2023-02-07T04:03:53.893Z,58.38
2023-02-07T04:06:56.830Z,59.53
2023-02-07T04:10:00.619Z,59.23
2023-02-07T04:13:02.894Z,59.53
2023-02-07T04:16:06.412Z,59.15
2023-02-07T04:19:08.682Z,58.64
2023-02-07T04:22:11.586Z,59.37
2023-02-07T04:25:13.972Z,58.28
2023-02-07T04:28:16.336Z,59.20
2023-02-07T04:31:18.691Z,59.24
2023-02-07T04:34:21.046Z,57.71
2023-02-07T04:37:23.703Z,58.08
2023-02-07T04:40:26.055Z,58.64
2023-02-07T04:43:28.348Z,57.61
2023-02-07T04:46:30.754Z,57.83
2023-02-07T04:49:34.575Z,58.48
2023-02-07T04:52:37.775Z,59.33
2023-02-07T04:55:40.419Z,59.80
2023-02-07T04:58:42.898Z,59.25
2023-02-07T05:01:45.394Z,60.06
2023-02-07T05:04:47.793Z,61.29
2023-02-07T05:07:50.173Z,59.28
2023-02-07T05:10:54.805Z,59.05
2023-02-07T05:13:57.183Z,60.12
2023-02-07T05:16:59.501Z,59.05
2023-02-07T05:20:02.417Z,59.41
2023-02-07T05:23:04.757Z,57.75
2023-02-07T05:26:07.134Z,57.66
2023-02-07T05:29:09.518Z,58.10
2023-02-07T05:32:34.388Z,58.07
2023-02-07T05:35:41.865Z,58.22
2023-02-07T05:38:44.134Z,58.08
2023-02-07T05:41:46.447Z,57.86
2023-02-07T05:44:48.724Z,56.95
2023-02-07T05:47:51.105Z,57.21
2023-02-07T05:50:53.481Z,56.96
2023-02-07T05:53:55.949Z,56.53
2023-02-07T05:56:58.327Z,56.11
2023-02-07T06:00:00.634Z,56.70
2023-02-07T06:03:03.018Z,56.37
2023-02-07T06:06:05.600Z,56.99
2023-02-07T06:09:07.976Z,56.16
2023-02-07T06:12:10.288Z,55.39
2023-02-07T06:15:12.627Z,55.06
2023-02-07T06:18:14.961Z,54.77
2023-02-07T06:21:17.430Z,55.51
2023-02-07T06:24:19.834Z,54.97
2023-02-07T06:27:23.565Z,54.50
2023-02-07T06:30:25.969Z,54.33
2023-02-07T06:33:28.430Z,54.73
2023-02-07T06:36:31.517Z,53.62
2023-02-07T06:39:34.206Z,53.72
2023-02-07T06:42:36.589Z,54.48
2023-02-07T06:45:40.519Z,55.36
2023-02-07T06:48:42.924Z,54.40
2023-02-07T06:51:45.216Z,54.64
2023-02-07T06:54:49.682Z,54.85
2023-02-07T06:57:52.027Z,55.21
2023-02-07T07:00:54.370Z,54.77
2023-02-07T07:03:56.814Z,54.27
2023-02-07T07:06:59.136Z,53.35
2023-02-07T07:10:02.033Z,53.85
2023-02-07T07:13:04.396Z,54.04
2023-02-07T07:16:07.127Z,51.77
2023-02-07T07:19:09.469Z,50.72
2023-02-07T07:22:11.897Z,50.02
2023-02-07T07:25:14.319Z,49.46
2023-02-07T07:28:17.187Z,49.90
2023-02-07T07:31:21.136Z,49.38
2023-02-07T07:34:23.454Z,49.45
2023-02-07T07:37:26.851Z,46.28
2023-02-07T07:40:29.441Z,45.87
2023-02-07T07:43:33.108Z,45.49
2023-02-07T07:46:35.524Z,45.76
2023-02-07T07:49:39.239Z,45.89
2023-02-07T07:52:43.108Z,44.52
2023-02-07T07:55:50.570Z,43.11
2023-02-07T07:58:52.958Z,44.47
2023-02-07T08:01:55.308Z,42.74
2023-02-07T08:04:59.008Z,41.95
2023-02-07T08:08:01.261Z,43.18
2023-02-07T08:11:05.591Z,43.16
2023-02-07T08:14:07.859Z,42.87
2023-02-07T08:17:10.212Z,42.87
2023-02-07T08:20:12.743Z,43.73
2023-02-07T08:23:15.216Z,41.45
2023-02-07T08:26:17.842Z,42.83
2023-02-07T08:29:20.233Z,43.65
2023-02-07T08:32:22.576Z,44.13
2023-02-07T08:35:26.577Z,43.01
2023-02-07T08:38:28.933Z,42.96
2023-02-07T08:41:31.376Z,42.11
2023-02-07T08:44:35.287Z,42.35
2023-02-07T08:47:37.698Z,42.68
2023-02-07T08:50:40.605Z,40.69
2023-02-07T08:53:43.203Z,40.51
2023-02-07T08:56:45.612Z,41.32
2023-02-07T08:59:47.913Z,40.63
2023-02-07T09:02:50.266Z,40.61
2023-02-07T09:05:58.418Z,41.11
2023-02-07T09:09:01.909Z,41.02
2023-02-07T09:12:05.755Z,39.11
2023-02-07T09:15:08.553Z,38.50
2023-02-07T09:18:10.965Z,38.80
2023-02-07T09:21:13.394Z,38.93
2023-02-07T09:24:15.851Z,39.65
2023-02-07T09:27:18.162Z,37.79
2023-02-07T09:30:25.366Z,37.09
2023-02-07T09:33:29.826Z,37.48
2023-02-07T09:37:00.720Z,41.89
2023-02-07T09:40:19.741Z,33.56
2023-02-07T09:43:56.535Z,33.47
2023-02-07T09:47:35.583Z,31.95
2023-02-07T09:50:43.777Z,32.74
2023-02-07T09:54:07.340Z,33.58
2023-02-07T09:57:20.940Z,34.92
2023-02-07T10:04:38.973Z,33.61
2023-02-07T10:07:41.924Z,31.26
2023-02-07T10:10:49.259Z,32.92
2023-02-07T10:14:27.754Z,32.29
2023-02-07T10:17:50.998Z,30.60
2023-02-07T10:21:38.614Z,30.84
2023-02-07T10:25:06.788Z,30.51
2023-02-07T10:28:23.583Z,30.78
2023-02-07T10:31:26.513Z,29.92
2023-02-07T10:34:33.062Z,30.34
2023-02-07T10:37:39.177Z,30.95
2023-02-07T10:41:00.379Z,33.11
2023-02-07T10:44:06.616Z,30.40
2023-02-07T10:47:15.073Z,30.06
2023-02-07T10:50:42.731Z,31.13
2023-02-07T10:54:11.417Z,31.97
2023-02-07T10:58:02.631Z,29.69
2023-02-07T11:01:21.534Z,28.11
2023-02-07T11:04:38.222Z,28.02
2023-02-07T11:07:47.635Z,26.54
2023-02-07T11:10:54.020Z,26.72
2023-02-07T11:14:04.725Z,25.69
2023-02-07T11:17:07.131Z,27.10
2023-02-07T11:20:36.924Z,26.27
2023-02-07T11:23:45.065Z,26.66
2023-02-07T11:27:07.454Z,25.43
2023-02-07T11:35:09.600Z,29.19
2023-02-07T11:38:17.798Z,29.58
2023-02-07T11:41:26.292Z,31.86
2023-02-07T11:44:31.031Z,31.67
2023-02-07T11:47:38.387Z,29.86
2023-02-07T11:50:44.417Z,30.33
2023-02-07T11:53:57.682Z,30.38
2023-02-07T11:57:08.794Z,30.67
2023-02-07T12:00:30.664Z,30.57
2023-02-07T12:03:52.920Z,30.37
2023-02-07T12:07:15.158Z,30.27
2023-02-07T12:10:43.123Z,31.69
2023-02-07T12:13:54.003Z,31.60
2023-02-07T12:17:24.572Z,29.69
2023-02-07T12:20:29.615Z,28.98
2023-02-07T12:23:51.386Z,28.49
2023-02-07T12:27:11.122Z,29.43
2023-02-07T12:30:34.429Z,28.39
2023-02-07T12:33:44.053Z,28.78
2023-02-07T12:36:48.977Z,29.36
2023-02-07T12:40:09.786Z,31.20
2023-02-07T12:43:22.848Z,30.97
2023-02-07T12:46:49.969Z,31.28
2023-02-07T12:50:16.742Z,32.08
2023-02-07T12:54:39.648Z,33.89
2023-02-07T12:58:35.846Z,32.56
2023-02-07T13:01:57.447Z,33.00
2023-02-07T13:05:04.784Z,30.92
2023-02-07T13:08:34.173Z,33.33
2023-02-07T13:11:54.771Z,34.15
2023-02-07T13:15:16.920Z,33.17
2023-02-07T13:18:48.828Z,32.06
2023-02-07T13:22:03.026Z,34.02
2023-02-07T13:25:09.716Z,34.11
2023-02-07T13:28:30.578Z,35.01
2023-02-07T13:31:41.792Z,34.00
2023-02-07T13:34:53.108Z,34.72
2023-02-07T13:38:19.850Z,34.41
2023-02-07T13:41:34.108Z,35.73
2023-02-07T13:45:04.374Z,34.79
2023-02-07T13:48:17.372Z,34.82
2023-02-07T13:51:59.900Z,34.05
2023-02-07T13:55:28.344Z,35.73
2023-02-07T13:58:52.396Z,35.62
2023-02-07T14:02:05.904Z,35.37
2023-02-07T14:05:12.309Z,36.05
2023-02-07T14:08:17.773Z,34.95
2023-02-07T14:11:40.821Z,36.27
2023-02-07T14:16:04.306Z,36.02
2023-02-07T14:19:39.415Z,35.03
2023-02-07T14:22:44.159Z,36.59
2023-02-07T14:25:50.629Z,36.12
2023-02-07T14:28:52.987Z,36.45
2023-02-07T14:32:16.686Z,36.36
2023-02-07T14:35:19.633Z,37.21
2023-02-07T14:43:13.216Z,37.46
2023-02-07T14:46:58.252Z,39.46
2023-02-07T14:50:02.489Z,37.80
2023-02-07T14:53:42.106Z,38.26
2023-02-07T14:56:59.712Z,38.23
2023-02-07T15:00:44.124Z,38.33
2023-02-07T15:03:46.569Z,37.90
2023-02-07T15:06:49.354Z,38.92
2023-02-07T15:09:51.720Z,38.57
2023-02-07T15:12:55.254Z,37.94
2023-02-07T15:16:27.463Z,38.07
2023-02-07T15:19:45.371Z,38.76
2023-02-07T15:22:53.346Z,39.69
2023-02-07T15:25:56.383Z,39.02
2023-02-07T15:29:06.451Z,39.56
2023-02-07T15:32:23.653Z,40.26
2023-02-07T15:35:30.130Z,40.10
2023-02-07T15:38:34.421Z,40.19
2023-02-07T15:41:37.787Z,40.81
2023-02-07T15:44:51.288Z,40.83
2023-02-07T15:48:02.066Z,40.61
2023-02-07T15:51:05.554Z,40.75
2023-02-07T15:54:19.170Z,41.27
2023-02-07T15:57:35.940Z,41.27
2023-02-07T16:00:45.618Z,40.75
2023-02-07T16:03:54.711Z,41.59
2023-02-07T16:07:11.211Z,41.85
2023-02-07T16:10:33.136Z,41.96
2023-02-07T16:13:49.113Z,42.63
2023-02-07T16:17:23.403Z,41.84
2023-02-07T16:20:23.574Z,42.14
2023-02-07T16:23:29.465Z,43.44
2023-02-07T16:26:31.841Z,43.88
2023-02-07T16:29:36.031Z,44.02
2023-02-07T16:32:38.519Z,45.19
2023-02-07T16:35:40.859Z,43.06
2023-02-07T16:38:43.541Z,44.40
2023-02-07T16:41:57.181Z,44.40
2023-02-07T16:45:00.591Z,43.96
2023-02-07T16:48:03.079Z,45.08
2023-02-07T16:51:05.562Z,44.29
2023-02-07T16:54:08.017Z,43.90
2023-02-07T16:57:12.874Z,43.48
2023-02-07T17:00:19.528Z,44.41
2023-02-07T17:03:22.945Z,44.03
2023-02-07T17:06:25.405Z,43.11
2023-02-07T17:09:27.809Z,43.57
2023-02-07T17:12:30.126Z,43.03
2023-02-07T17:15:32.765Z,42.97
2023-02-07T17:18:35.070Z,43.28
2023-02-07T17:21:37.359Z,43.56
2023-02-07T17:24:39.676Z,44.85
2023-02-07T17:27:42.117Z,44.83
2023-02-07T17:30:45.250Z,44.40
2023-02-07T17:33:48.116Z,45.14
2023-02-07T17:36:50.770Z,45.01
2023-02-07T17:39:53.239Z,48.48
2023-02-07T17:42:56.245Z,46.54
2023-02-07T17:45:58.572Z,46.41
2023-02-07T17:49:01.359Z,47.11
2023-02-07T17:52:03.903Z,46.37
2023-02-07T17:55:06.585Z,47.07
2023-02-07T17:58:10.577Z,46.19
2023-02-07T18:01:12.998Z,49.03
2023-02-07T18:04:15.346Z,47.04
2023-02-07T18:07:17.824Z,47.14
2023-02-07T18:10:21.737Z,47.17
2023-02-07T18:13:24.040Z,47.51
2023-02-07T18:16:27.187Z,46.89
2023-02-07T18:19:32.579Z,49.69
2023-02-07T18:22:35.092Z,49.41
2023-02-07T18:25:37.431Z,48.18
2023-02-07T18:28:40.142Z,50.18
2023-02-07T18:31:42.643Z,50.08
2023-02-07T18:34:45.261Z,49.69
2023-02-07T18:37:47.984Z,52.33
2023-02-07T18:40:50.555Z,50.21
2023-02-07T18:43:52.993Z,51.21
2023-02-07T18:46:55.318Z,50.33
2023-02-07T18:49:57.563Z,50.32
2023-02-07T18:52:59.884Z,51.42
2023-02-07T18:56:23.124Z,51.88
2023-02-07T18:59:25.663Z,54.23
2023-02-07T19:02:28.030Z,54.46
2023-02-07T19:05:30.444Z,54.15
2023-02-07T19:08:32.846Z,52.68
2023-02-07T19:11:36.690Z,52.42
2023-02-07T19:14:39.017Z,51.96
2023-02-07T19:17:41.319Z,52.23
2023-02-07T19:20:43.814Z,53.09
2023-02-07T19:23:48.447Z,52.74
2023-02-07T19:26:57.761Z,52.86
2023-02-07T19:30:00.280Z,53.64
2023-02-07T19:33:03.067Z,53.36
2023-02-07T19:36:10.212Z,53.48
2023-02-07T19:39:12.509Z,53.26
2023-02-07T19:42:15.038Z,53.49
2023-02-07T19:45:17.465Z,53.74
2023-02-07T19:48:20.956Z,54.11
2023-02-07T19:51:28.505Z,54.00
2023-02-07T19:54:30.832Z,54.08
2023-02-07T19:57:36.254Z,53.56
2023-02-07T20:00:39.069Z,53.29
2023-02-07T20:03:44.469Z,54.20
2023-02-07T20:06:46.785Z,53.55
2023-02-07T20:09:49.253Z,53.82
2023-02-07T20:12:54.696Z,53.63
2023-02-07T20:15:58.047Z,54.02
2023-02-07T20:19:00.879Z,53.58
2023-02-07T20:22:03.254Z,53.30
2023-02-07T20:25:07.621Z,53.48
2023-02-07T20:28:10.028Z,53.40
2023-02-07T20:31:15.569Z,52.63
2023-02-07T20:34:20.879Z,53.25
2023-02-07T20:37:23.187Z,51.93
2023-02-07T20:40:25.512Z,52.43
2023-02-07T20:43:27.863Z,52.88
2023-02-07T20:46:31.003Z,53.30
2023-02-07T20:49:33.452Z,53.02
2023-02-07T20:52:37.585Z,52.99
2023-02-07T20:55:39.912Z,53.85
2023-02-07T20:58:42.219Z,53.74
2023-02-07T21:01:44.574Z,54.20
2023-02-07T21:04:46.824Z,53.71
2023-02-07T21:07:49.096Z,53.61
2023-02-07T21:10:51.558Z,53.72
2023-02-07T21:13:54.359Z,53.87
2023-02-07T21:16:58.724Z,54.28
2023-02-07T21:20:01.192Z,54.02
2023-02-07T21:23:03.532Z,54.47
2023-02-07T21:26:07.679Z,54.86
2023-02-07T21:29:11.130Z,54.80
2023-02-07T21:32:13.482Z,54.54
2023-02-07T21:35:16.106Z,54.49
2023-02-07T21:38:18.417Z,54.27
2023-02-07T21:41:23.335Z,54.00
2023-02-07T21:44:25.898Z,54.00
2023-02-07T21:47:28.745Z,55.05
2023-02-07T21:50:33.051Z,54.97
2023-02-07T21:53:36.995Z,54.70
2023-02-07T21:56:40.806Z,55.87
2023-02-07T21:59:43.172Z,55.55
2023-02-07T22:02:46.237Z,55.46
2023-02-07T22:05:52.007Z,54.88
2023-02-07T22:08:59.992Z,56.07
2023-02-07T22:12:02.726Z,55.25
2023-02-07T22:15:05.314Z,55.49
2023-02-07T22:18:07.621Z,55.65
2023-02-07T22:21:14.908Z,55.67
2023-02-07T22:24:18.771Z,56.10
2023-02-07T22:27:21.082Z,55.23
2023-02-07T22:30:24.964Z,55.91
2023-02-07T22:33:28.598Z,56.15
2023-02-07T22:36:33.733Z,56.04
2023-02-07T22:39:36.051Z,55.94
2023-02-07T22:42:39.563Z,55.86
2023-02-07T22:45:45.965Z,56.01
2023-02-07T22:48:49.198Z,56.45
2023-02-07T22:51:51.724Z,56.78
2023-02-07T22:54:54.153Z,57.07
2023-02-07T22:57:57.651Z,56.91
2023-02-07T23:01:00.002Z,57.27
2023-02-07T23:04:05.136Z,56.92
2023-02-07T23:07:07.688Z,56.88
2023-02-07T23:10:10.245Z,56.53
2023-02-07T23:13:12.682Z,57.40
2023-02-07T23:16:20.691Z,55.60
2023-02-07T23:19:23.625Z,55.32
2023-02-07T23:22:27.189Z,56.05
2023-02-07T23:25:29.623Z,56.61
2023-02-07T23:28:31.956Z,56.43
2023-02-07T23:31:35.263Z,56.78
2023-02-07T23:34:37.646Z,56.43
2023-02-07T23:37:39.984Z,56.05
2023-02-07T23:40:42.672Z,56.64
2023-02-07T23:43:46.669Z,56.60
2023-02-07T23:46:48.984Z,56.25
2023-02-07T23:49:51.442Z,57.20
2023-02-07T23:52:53.738Z,56.38
2023-02-07T23:55:56.609Z,55.46
2023-02-07T23:58:59.061Z,55.76
